sensor_id;sensor_type;location;lat;lon;timestamp;temperature;humidity
4651;DHT22;2338;49.602;8.722;2023-03-21T00:01:06;9.40;99.90
4651;DHT22;2338;49.602;8.722;2023-03-21T00:03:53;9.30;99.90
4651;DHT22;2338;49.602;8.722;2023-03-21T00:06:39;9.30;99.90
4651;DHT22;2338;49.602;8.722;2023-03-21T00:09:25;9.30;99.90
4651;DHT22;2338;49.602;8.722;2023-03-21T00:12:10;9.30;99.90
4651;DHT22;2338;49.602;8.722;2023-03-21T00:14:57;9.20;99.90
4651;DHT22;2338;49.602;8.722;2023-03-21T00:17:49;9.10;99.90
4651;DHT22;2338;49.602;8.722;2023-03-21T00:20:36;9.20;99.90
4651;DHT22;2338;49.602;8.722;2023-03-21T00:23:22;9.20;99.90
4651;DHT22;2338;49.602;8.722;2023-03-21T00:26:09;9.20;99.90
4651;DHT22;2338;49.602;8.722;2023-03-21T00:28:55;9.20;99.90
4651;DHT22;2338;49.602;8.722;2023-03-21T00:31:40;9.20;99.90
4651;DHT22;2338;49.602;8.722;2023-03-21T00:34:26;9.20;99.90
4651;DHT22;2338;49.602;8.722;2023-03-21T00:37:13;9.20;99.90
4651;DHT22;2338;49.602;8.722;2023-03-21T00:40:00;9.20;99.90
4651;DHT22;2338;49.602;8.722;2023-03-21T00:42:45;9.20;99.90
4651;DHT22;2338;49.602;8.722;2023-03-21T00:45:31;9.20;99.90
4651;DHT22;2338;49.602;8.722;2023-03-21T00:48:17;9.20;99.90
4651;DHT22;2338;49.602;8.722;2023-03-21T00:51:10;9.20;99.90
4651;DHT22;2338;49.602;8.722;2023-03-21T00:53:59;9.20;99.90
4651;DHT22;2338;49.602;8.722;2023-03-21T00:56:45;9.10;99.90
4651;DHT22;2338;49.602;8.722;2023-03-21T00:59:31;9.20;99.90
4651;DHT22;2338;49.602;8.722;2023-03-21T01:02:17;9.20;99.90
4651;DHT22;2338;49.602;8.722;2023-03-21T01:05:07;9.20;99.90
4651;DHT22;2338;49.602;8.722;2023-03-21T01:07:53;9.20;99.90
4651;DHT22;2338;49.602;8.722;2023-03-21T01:10:42;9.30;99.90
4651;DHT22;2338;49.602;8.722;2023-03-21T01:13:27;9.30;99.90
4651;DHT22;2338;49.602;8.722;2023-03-21T01:16:13;9.30;99.90
4651;DHT22;2338;49.602;8.722;2023-03-21T01:18:59;9.30;99.90
4651;DHT22;2338;49.602;8.722;2023-03-21T01:21:45;9.30;99.90
4651;DHT22;2338;49.602;8.722;2023-03-21T01:24:30;9.30;99.90
4651;DHT22;2338;49.602;8.722;2023-03-21T01:27:17;9.20;99.90
4651;DHT22;2338;49.602;8.722;2023-03-21T01:30:03;9.10;99.90
4651;DHT22;2338;49.602;8.722;2023-03-21T01:32:49;9.10;99.90
4651;DHT22;2338;49.602;8.722;2023-03-21T01:35:35;9.00;99.90
4651;DHT22;2338;49.602;8.722;2023-03-21T01:38:21;8.90;99.90
4651;DHT22;2338;49.602;8.722;2023-03-21T01:41:08;8.90;99.90
4651;DHT22;2338;49.602;8.722;2023-03-21T01:43:56;8.80;99.90
4651;DHT22;2338;49.602;8.722;2023-03-21T01:46:43;8.60;99.90
4651;DHT22;2338;49.602;8.722;2023-03-21T01:49:34;8.60;99.90
4651;DHT22;2338;49.602;8.722;2023-03-21T01:52:25;8.50;99.90
4651;DHT22;2338;49.602;8.722;2023-03-21T01:55:13;8.50;99.90
4651;DHT22;2338;49.602;8.722;2023-03-21T01:58:00;8.40;99.90
4651;DHT22;2338;49.602;8.722;2023-03-21T02:00:50;8.30;99.90
4651;DHT22;2338;49.602;8.722;2023-03-21T02:03:38;8.30;99.90
4651;DHT22;2338;49.602;8.722;2023-03-21T02:06:37;8.30;99.90
4651;DHT22;2338;49.602;8.722;2023-03-21T02:09:27;8.10;99.90
4651;DHT22;2338;49.602;8.722;2023-03-21T02:12:15;8.10;99.90
4651;DHT22;2338;49.602;8.722;2023-03-21T02:15:02;8.20;99.90
4651;DHT22;2338;49.602;8.722;2023-03-21T02:17:53;8.30;99.90
4651;DHT22;2338;49.602;8.722;2023-03-21T02:21:00;8.30;99.90
4651;DHT22;2338;49.602;8.722;2023-03-21T02:24:24;8.30;99.90
4651;DHT22;2338;49.602;8.722;2023-03-21T02:27:14;8.30;99.90
4651;DHT22;2338;49.602;8.722;2023-03-21T02:30:40;8.40;99.90
4651;DHT22;2338;49.602;8.722;2023-03-21T02:34:03;8.30;99.90
4651;DHT22;2338;49.602;8.722;2023-03-21T02:36:59;8.20;99.90
4651;DHT22;2338;49.602;8.722;2023-03-21T02:39:55;8.10;99.90
4651;DHT22;2338;49.602;8.722;2023-03-21T02:42:52;8.10;99.90
4651;DHT22;2338;49.602;8.722;2023-03-21T02:45:43;8.10;99.90
4651;DHT22;2338;49.602;8.722;2023-03-21T02:48:34;8.20;99.90
4651;DHT22;2338;49.602;8.722;2023-03-21T02:51:23;8.30;99.90
4651;DHT22;2338;49.602;8.722;2023-03-21T02:54:13;8.20;99.90
4651;DHT22;2338;49.602;8.722;2023-03-21T02:57:00;8.20;99.90
4651;DHT22;2338;49.602;8.722;2023-03-21T02:59:48;8.30;99.90
4651;DHT22;2338;49.602;8.722;2023-03-21T03:02:36;8.30;99.90
4651;DHT22;2338;49.602;8.722;2023-03-21T03:05:24;8.40;99.90
4651;DHT22;2338;49.602;8.722;2023-03-21T03:08:28;8.40;99.90
4651;DHT22;2338;49.602;8.722;2023-03-21T03:11:23;8.40;99.90
4651;DHT22;2338;49.602;8.722;2023-03-21T03:14:39;8.40;99.90
4651;DHT22;2338;49.602;8.722;2023-03-21T03:17:37;8.30;99.90
4651;DHT22;2338;49.602;8.722;2023-03-21T03:20:32;8.30;99.90
4651;DHT22;2338;49.602;8.722;2023-03-21T03:23:27;8.30;99.90
4651;DHT22;2338;49.602;8.722;2023-03-21T03:26:17;8.20;99.90
4651;DHT22;2338;49.602;8.722;2023-03-21T03:29:07;8.10;99.90
4651;DHT22;2338;49.602;8.722;2023-03-21T03:31:56;8.10;99.90
4651;DHT22;2338;49.602;8.722;2023-03-21T03:34:45;8.10;99.90
4651;DHT22;2338;49.602;8.722;2023-03-21T03:37:34;8.00;99.90
4651;DHT22;2338;49.602;8.722;2023-03-21T03:40:25;7.90;99.90
4651;DHT22;2338;49.602;8.722;2023-03-21T03:43:16;7.90;99.90
4651;DHT22;2338;49.602;8.722;2023-03-21T03:46:09;7.80;99.90
4651;DHT22;2338;49.602;8.722;2023-03-21T03:49:00;7.70;99.90
4651;DHT22;2338;49.602;8.722;2023-03-21T03:51:50;7.60;99.90
4651;DHT22;2338;49.602;8.722;2023-03-21T03:54:39;7.50;99.90
4651;DHT22;2338;49.602;8.722;2023-03-21T03:57:26;7.50;99.90
4651;DHT22;2338;49.602;8.722;2023-03-21T04:00:15;7.40;99.90
4651;DHT22;2338;49.602;8.722;2023-03-21T04:03:02;7.50;99.90
4651;DHT22;2338;49.602;8.722;2023-03-21T04:05:50;7.50;99.90
4651;DHT22;2338;49.602;8.722;2023-03-21T04:08:36;7.60;99.90
4651;DHT22;2338;49.602;8.722;2023-03-21T04:11:22;7.60;99.90
4651;DHT22;2338;49.602;8.722;2023-03-21T04:14:08;7.50;99.90
4651;DHT22;2338;49.602;8.722;2023-03-21T04:16:53;7.50;99.90
4651;DHT22;2338;49.602;8.722;2023-03-21T04:19:40;7.50;99.90
4651;DHT22;2338;49.602;8.722;2023-03-21T04:22:26;7.60;99.90
4651;DHT22;2338;49.602;8.722;2023-03-21T04:25:11;7.70;99.90
4651;DHT22;2338;49.602;8.722;2023-03-21T04:27:57;7.70;99.90
4651;DHT22;2338;49.602;8.722;2023-03-21T04:30:43;7.80;99.90
4651;DHT22;2338;49.602;8.722;2023-03-21T04:33:29;7.90;99.90
4651;DHT22;2338;49.602;8.722;2023-03-21T04:36:16;7.90;99.90
4651;DHT22;2338;49.602;8.722;2023-03-21T04:39:10;7.90;99.90
4651;DHT22;2338;49.602;8.722;2023-03-21T04:41:56;7.90;99.90
4651;DHT22;2338;49.602;8.722;2023-03-21T04:44:42;8.00;99.90
4651;DHT22;2338;49.602;8.722;2023-03-21T04:47:27;8.00;99.90
4651;DHT22;2338;49.602;8.722;2023-03-21T04:50:13;8.00;99.90
4651;DHT22;2338;49.602;8.722;2023-03-21T04:53:00;7.90;99.90
4651;DHT22;2338;49.602;8.722;2023-03-21T04:55:45;7.90;99.90
4651;DHT22;2338;49.602;8.722;2023-03-21T04:58:31;7.90;99.90
4651;DHT22;2338;49.602;8.722;2023-03-21T05:01:17;7.90;99.90
4651;DHT22;2338;49.602;8.722;2023-03-21T05:04:04;8.00;99.90
4651;DHT22;2338;49.602;8.722;2023-03-21T05:06:49;8.00;99.90
4651;DHT22;2338;49.602;8.722;2023-03-21T05:09:36;8.00;99.90
4651;DHT22;2338;49.602;8.722;2023-03-21T05:12:22;7.90;99.90
4651;DHT22;2338;49.602;8.722;2023-03-21T05:15:08;7.90;99.90
4651;DHT22;2338;49.602;8.722;2023-03-21T05:17:54;7.80;99.90
4651;DHT22;2338;49.602;8.722;2023-03-21T05:20:42;7.60;99.90
4651;DHT22;2338;49.602;8.722;2023-03-21T05:23:27;7.60;99.90
4651;DHT22;2338;49.602;8.722;2023-03-21T05:26:15;7.60;99.90
4651;DHT22;2338;49.602;8.722;2023-03-21T05:29:01;7.60;99.90
4651;DHT22;2338;49.602;8.722;2023-03-21T05:31:47;7.60;99.90
4651;DHT22;2338;49.602;8.722;2023-03-21T05:34:32;7.50;99.90
4651;DHT22;2338;49.602;8.722;2023-03-21T05:37:18;7.40;99.90
4651;DHT22;2338;49.602;8.722;2023-03-21T05:40:04;7.40;99.90
4651;DHT22;2338;49.602;8.722;2023-03-21T05:42:52;7.30;99.90
4651;DHT22;2338;49.602;8.722;2023-03-21T05:45:37;7.30;99.90
4651;DHT22;2338;49.602;8.722;2023-03-21T05:48:23;7.20;99.90
4651;DHT22;2338;49.602;8.722;2023-03-21T05:51:09;7.30;99.90
4651;DHT22;2338;49.602;8.722;2023-03-21T05:53:55;7.20;99.90
4651;DHT22;2338;49.602;8.722;2023-03-21T05:56:40;7.20;99.90
4651;DHT22;2338;49.602;8.722;2023-03-21T05:59:27;7.20;99.90
4651;DHT22;2338;49.602;8.722;2023-03-21T06:02:13;7.40;99.90
4651;DHT22;2338;49.602;8.722;2023-03-21T06:04:58;7.40;99.90
4651;DHT22;2338;49.602;8.722;2023-03-21T06:07:44;7.40;99.90
4651;DHT22;2338;49.602;8.722;2023-03-21T06:10:30;7.50;99.90
4651;DHT22;2338;49.602;8.722;2023-03-21T06:13:16;7.40;99.90
4651;DHT22;2338;49.602;8.722;2023-03-21T06:16:04;7.40;99.90
4651;DHT22;2338;49.602;8.722;2023-03-21T06:18:50;7.50;99.90
4651;DHT22;2338;49.602;8.722;2023-03-21T06:21:36;7.60;99.90
4651;DHT22;2338;49.602;8.722;2023-03-21T06:24:21;7.60;99.90
4651;DHT22;2338;49.602;8.722;2023-03-21T06:27:07;7.70;99.90
4651;DHT22;2338;49.602;8.722;2023-03-21T06:29:52;7.80;99.90
4651;DHT22;2338;49.602;8.722;2023-03-21T06:32:39;7.90;99.90
4651;DHT22;2338;49.602;8.722;2023-03-21T06:35:24;8.00;99.90
4651;DHT22;2338;49.602;8.722;2023-03-21T06:38:10;8.00;99.90
4651;DHT22;2338;49.602;8.722;2023-03-21T06:40:55;8.10;99.90
4651;DHT22;2338;49.602;8.722;2023-03-21T06:43:41;8.00;99.90
4651;DHT22;2338;49.602;8.722;2023-03-21T06:46:27;8.10;99.90
4651;DHT22;2338;49.602;8.722;2023-03-21T06:49:14;8.30;99.90
4651;DHT22;2338;49.602;8.722;2023-03-21T06:52:00;8.30;99.90
4651;DHT22;2338;49.602;8.722;2023-03-21T06:54:46;8.50;99.90
4651;DHT22;2338;49.602;8.722;2023-03-21T06:57:32;8.50;99.90
4651;DHT22;2338;49.602;8.722;2023-03-21T07:00:18;8.70;99.90
4651;DHT22;2338;49.602;8.722;2023-03-21T07:03:04;8.90;99.90
4651;DHT22;2338;49.602;8.722;2023-03-21T07:05:51;9.10;99.90
4651;DHT22;2338;49.602;8.722;2023-03-21T07:08:38;9.20;99.90
4651;DHT22;2338;49.602;8.722;2023-03-21T07:11:24;9.30;99.90
4651;DHT22;2338;49.602;8.722;2023-03-21T07:14:09;9.50;99.90
4651;DHT22;2338;49.602;8.722;2023-03-21T07:16:55;9.60;99.90
4651;DHT22;2338;49.602;8.722;2023-03-21T07:19:41;9.60;99.90
4651;DHT22;2338;49.602;8.722;2023-03-21T07:22:28;9.70;99.90
4651;DHT22;2338;49.602;8.722;2023-03-21T07:25:13;9.70;99.90
4651;DHT22;2338;49.602;8.722;2023-03-21T07:28:00;9.90;99.90
4651;DHT22;2338;49.602;8.722;2023-03-21T07:30:51;10.00;99.90
4651;DHT22;2338;49.602;8.722;2023-03-21T07:33:37;10.10;99.90
4651;DHT22;2338;49.602;8.722;2023-03-21T07:36:23;10.20;99.90
4651;DHT22;2338;49.602;8.722;2023-03-21T07:39:11;10.30;99.90
4651;DHT22;2338;49.602;8.722;2023-03-21T07:41:56;10.40;99.90
4651;DHT22;2338;49.602;8.722;2023-03-21T07:44:42;10.50;99.90
4651;DHT22;2338;49.602;8.722;2023-03-21T07:47:28;10.60;99.90
4651;DHT22;2338;49.602;8.722;2023-03-21T07:50:14;10.80;99.90
4651;DHT22;2338;49.602;8.722;2023-03-21T07:52:59;10.90;99.90
4651;DHT22;2338;49.602;8.722;2023-03-21T07:55:50;11.00;99.90
4651;DHT22;2338;49.602;8.722;2023-03-21T07:58:35;11.10;99.90
4651;DHT22;2338;49.602;8.722;2023-03-21T08:01:21;11.20;99.90
4651;DHT22;2338;49.602;8.722;2023-03-21T08:04:07;11.20;99.90
4651;DHT22;2338;49.602;8.722;2023-03-21T08:06:53;11.30;99.90
4651;DHT22;2338;49.602;8.722;2023-03-21T08:09:38;11.40;99.90
4651;DHT22;2338;49.602;8.722;2023-03-21T08:12:26;11.50;99.90
4651;DHT22;2338;49.602;8.722;2023-03-21T08:15:11;11.70;99.90
4651;DHT22;2338;49.602;8.722;2023-03-21T08:17:58;11.80;99.90
4651;DHT22;2338;49.602;8.722;2023-03-21T08:20:43;12.00;99.90
4651;DHT22;2338;49.602;8.722;2023-03-21T08:23:29;12.10;99.90
4651;DHT22;2338;49.602;8.722;2023-03-21T08:26:15;12.40;99.30
4651;DHT22;2338;49.602;8.722;2023-03-21T08:29:03;12.40;96.60
4651;DHT22;2338;49.602;8.722;2023-03-21T08:31:49;12.50;94.80
4651;DHT22;2338;49.602;8.722;2023-03-21T08:34:34;12.50;88.60
4651;DHT22;2338;49.602;8.722;2023-03-21T08:37:20;12.50;91.60
4651;DHT22;2338;49.602;8.722;2023-03-21T08:40:10;12.60;90.20
4651;DHT22;2338;49.602;8.722;2023-03-21T08:42:56;12.60;86.50
4651;DHT22;2338;49.602;8.722;2023-03-21T08:45:44;12.70;88.70
4651;DHT22;2338;49.602;8.722;2023-03-21T08:48:29;12.90;84.10
4651;DHT22;2338;49.602;8.722;2023-03-21T08:51:15;13.00;85.20
4651;DHT22;2338;49.602;8.722;2023-03-21T08:54:00;13.20;82.40
4651;DHT22;2338;49.602;8.722;2023-03-21T08:56:46;13.30;80.50
4651;DHT22;2338;49.602;8.722;2023-03-21T08:59:32;13.20;76.30
4651;DHT22;2338;49.602;8.722;2023-03-21T09:02:19;13.30;77.40
4651;DHT22;2338;49.602;8.722;2023-03-21T09:05:05;13.40;78.00
4651;DHT22;2338;49.602;8.722;2023-03-21T09:07:51;13.40;73.30
4651;DHT22;2338;49.602;8.722;2023-03-21T09:10:38;13.30;74.30
4651;DHT22;2338;49.602;8.722;2023-03-21T09:13:23;13.30;73.60
4651;DHT22;2338;49.602;8.722;2023-03-21T09:16:09;13.30;73.80
4651;DHT22;2338;49.602;8.722;2023-03-21T09:18:56;13.30;74.50
4651;DHT22;2338;49.602;8.722;2023-03-21T09:21:42;13.30;72.90
4651;DHT22;2338;49.602;8.722;2023-03-21T09:24:28;13.30;71.90
4651;DHT22;2338;49.602;8.722;2023-03-21T09:27:15;13.30;72.20
4651;DHT22;2338;49.602;8.722;2023-03-21T09:30:01;13.20;73.10
4651;DHT22;2338;49.602;8.722;2023-03-21T09:32:49;13.20;76.10
4651;DHT22;2338;49.602;8.722;2023-03-21T09:35:38;13.30;73.00
4651;DHT22;2338;49.602;8.722;2023-03-21T09:38:24;13.20;71.30
4651;DHT22;2338;49.602;8.722;2023-03-21T09:41:24;13.30;74.20
4651;DHT22;2338;49.602;8.722;2023-03-21T09:44:28;13.30;73.80
4651;DHT22;2338;49.602;8.722;2023-03-21T09:47:19;13.30;73.00
4651;DHT22;2338;49.602;8.722;2023-03-21T09:50:11;13.30;72.40
4651;DHT22;2338;49.602;8.722;2023-03-21T09:53:04;13.30;70.80
4651;DHT22;2338;49.602;8.722;2023-03-21T09:55:52;13.40;73.40
4651;DHT22;2338;49.602;8.722;2023-03-21T09:58:40;13.40;74.20
4651;DHT22;2338;49.602;8.722;2023-03-21T10:01:30;13.50;74.20
4651;DHT22;2338;49.602;8.722;2023-03-21T10:04:17;13.50;75.80
4651;DHT22;2338;49.602;8.722;2023-03-21T10:07:03;13.40;75.60
4651;DHT22;2338;49.602;8.722;2023-03-21T10:09:51;13.50;76.20
4651;DHT22;2338;49.602;8.722;2023-03-21T10:12:36;13.40;76.10
4651;DHT22;2338;49.602;8.722;2023-03-21T10:15:24;13.50;78.50
4651;DHT22;2338;49.602;8.722;2023-03-21T10:18:13;13.50;77.80
4651;DHT22;2338;49.602;8.722;2023-03-21T10:21:01;13.40;77.00
4651;DHT22;2338;49.602;8.722;2023-03-21T10:23:49;13.30;76.30
4651;DHT22;2338;49.602;8.722;2023-03-21T10:26:37;13.30;78.90
4651;DHT22;2338;49.602;8.722;2023-03-21T10:29:28;13.30;78.40
4651;DHT22;2338;49.602;8.722;2023-03-21T10:32:16;13.30;77.30
4651;DHT22;2338;49.602;8.722;2023-03-21T10:35:02;13.40;78.80
4651;DHT22;2338;49.602;8.722;2023-03-21T10:37:48;13.40;78.50
4651;DHT22;2338;49.602;8.722;2023-03-21T10:40:34;13.50;79.20
4651;DHT22;2338;49.602;8.722;2023-03-21T10:43:33;13.40;76.40
4651;DHT22;2338;49.602;8.722;2023-03-21T10:46:20;13.40;78.10
4651;DHT22;2338;49.602;8.722;2023-03-21T10:49:07;13.50;78.50
4651;DHT22;2338;49.602;8.722;2023-03-21T10:51:55;13.40;78.50
4651;DHT22;2338;49.602;8.722;2023-03-21T10:54:41;13.40;80.10
4651;DHT22;2338;49.602;8.722;2023-03-21T10:57:26;13.50;82.80
4651;DHT22;2338;49.602;8.722;2023-03-21T11:00:19;13.60;83.20
4651;DHT22;2338;49.602;8.722;2023-03-21T11:03:06;13.70;79.90
4651;DHT22;2338;49.602;8.722;2023-03-21T11:05:55;13.80;78.90
4651;DHT22;2338;49.602;8.722;2023-03-21T11:08:45;13.70;78.20
4651;DHT22;2338;49.602;8.722;2023-03-21T11:11:36;13.70;77.10
4651;DHT22;2338;49.602;8.722;2023-03-21T11:14:32;13.70;78.80
4651;DHT22;2338;49.602;8.722;2023-03-21T11:17:24;13.70;76.60
4651;DHT22;2338;49.602;8.722;2023-03-21T11:20:16;13.70;78.00
4651;DHT22;2338;49.602;8.722;2023-03-21T11:23:02;13.70;78.80
4651;DHT22;2338;49.602;8.722;2023-03-21T11:25:49;13.60;78.70
4651;DHT22;2338;49.602;8.722;2023-03-21T11:28:37;13.60;82.50
4651;DHT22;2338;49.602;8.722;2023-03-21T11:31:36;13.50;82.30
4651;DHT22;2338;49.602;8.722;2023-03-21T11:34:30;13.40;88.60
4651;DHT22;2338;49.602;8.722;2023-03-21T11:37:20;13.40;90.00
4651;DHT22;2338;49.602;8.722;2023-03-21T11:40:20;13.40;87.50
4651;DHT22;2338;49.602;8.722;2023-03-21T11:43:25;13.50;85.80
4651;DHT22;2338;49.602;8.722;2023-03-21T11:46:13;13.50;85.50
4651;DHT22;2338;49.602;8.722;2023-03-21T11:48:59;13.50;85.00
4651;DHT22;2338;49.602;8.722;2023-03-21T11:51:51;13.50;84.40
4651;DHT22;2338;49.602;8.722;2023-03-21T11:54:54;13.40;83.80
4651;DHT22;2338;49.602;8.722;2023-03-21T11:57:46;13.40;85.50
4651;DHT22;2338;49.602;8.722;2023-03-21T12:00:42;13.40;80.40
4651;DHT22;2338;49.602;8.722;2023-03-21T12:06:45;13.40;80.50
4651;DHT22;2338;49.602;8.722;2023-03-21T12:09:37;13.40;82.20
4651;DHT22;2338;49.602;8.722;2023-03-21T12:12:32;13.40;87.50
4651;DHT22;2338;49.602;8.722;2023-03-21T12:15:28;13.40;83.00
4651;DHT22;2338;49.602;8.722;2023-03-21T12:18:28;13.40;85.10
4651;DHT22;2338;49.602;8.722;2023-03-21T12:21:22;13.30;82.50
4651;DHT22;2338;49.602;8.722;2023-03-21T12:24:16;13.40;81.20
4651;DHT22;2338;49.602;8.722;2023-03-21T12:27:12;13.40;83.90
4651;DHT22;2338;49.602;8.722;2023-03-21T12:30:12;13.40;90.30
4651;DHT22;2338;49.602;8.722;2023-03-21T12:33:18;13.40;94.00
4651;DHT22;2338;49.602;8.722;2023-03-21T12:36:17;13.40;90.90
4651;DHT22;2338;49.602;8.722;2023-03-21T12:39:15;13.40;94.20
4651;DHT22;2338;49.602;8.722;2023-03-21T12:42:18;13.60;97.80
4651;DHT22;2338;49.602;8.722;2023-03-21T12:45:11;13.80;98.50
4651;DHT22;2338;49.602;8.722;2023-03-21T12:48:10;13.90;95.90
4651;DHT22;2338;49.602;8.722;2023-03-21T12:51:00;14.10;95.70
4651;DHT22;2338;49.602;8.722;2023-03-21T12:54:07;14.20;90.70
4651;DHT22;2338;49.602;8.722;2023-03-21T12:56:57;14.30;76.60
4651;DHT22;2338;49.602;8.722;2023-03-21T12:59:51;14.30;77.50
4651;DHT22;2338;49.602;8.722;2023-03-21T13:02:41;14.30;75.50
4651;DHT22;2338;49.602;8.722;2023-03-21T13:05:30;14.40;77.20
4651;DHT22;2338;49.602;8.722;2023-03-21T13:08:19;14.40;70.70
4651;DHT22;2338;49.602;8.722;2023-03-21T13:11:07;14.30;73.40
4651;DHT22;2338;49.602;8.722;2023-03-21T13:14:00;14.30;71.90
4651;DHT22;2338;49.602;8.722;2023-03-21T13:16:52;14.30;72.80
4651;DHT22;2338;49.602;8.722;2023-03-21T13:19:43;14.30;66.20
4651;DHT22;2338;49.602;8.722;2023-03-21T13:22:31;14.20;67.50
4651;DHT22;2338;49.602;8.722;2023-03-21T13:25:19;14.30;70.00
4651;DHT22;2338;49.602;8.722;2023-03-21T13:28:05;14.30;71.00
4651;DHT22;2338;49.602;8.722;2023-03-21T13:30:51;14.30;71.40
4651;DHT22;2338;49.602;8.722;2023-03-21T13:33:39;14.30;66.40
4651;DHT22;2338;49.602;8.722;2023-03-21T13:36:29;14.20;66.00
4651;DHT22;2338;49.602;8.722;2023-03-21T13:39:18;14.20;64.80
4651;DHT22;2338;49.602;8.722;2023-03-21T13:42:16;14.10;67.30
4651;DHT22;2338;49.602;8.722;2023-03-21T13:45:08;14.10;66.80
4651;DHT22;2338;49.602;8.722;2023-03-21T13:47:55;14.10;65.70
4651;DHT22;2338;49.602;8.722;2023-03-21T13:50:58;14.10;65.10
4651;DHT22;2338;49.602;8.722;2023-03-21T13:53:58;14.20;67.20
4651;DHT22;2338;49.602;8.722;2023-03-21T13:56:50;14.20;66.00
4651;DHT22;2338;49.602;8.722;2023-03-21T13:59:41;14.20;65.70
4651;DHT22;2338;49.602;8.722;2023-03-21T14:02:29;14.10;66.90
4651;DHT22;2338;49.602;8.722;2023-03-21T14:05:20;14.10;66.90
4651;DHT22;2338;49.602;8.722;2023-03-21T14:08:09;14.00;65.90
4651;DHT22;2338;49.602;8.722;2023-03-21T14:11:04;14.00;66.80
4651;DHT22;2338;49.602;8.722;2023-03-21T14:13:53;13.90;70.40
4651;DHT22;2338;49.602;8.722;2023-03-21T14:16:40;13.90;70.60
4651;DHT22;2338;49.602;8.722;2023-03-21T14:19:30;13.90;73.00
4651;DHT22;2338;49.602;8.722;2023-03-21T14:22:16;13.90;83.10
4651;DHT22;2338;49.602;8.722;2023-03-21T14:25:05;13.80;90.40
4651;DHT22;2338;49.602;8.722;2023-03-21T14:27:53;13.80;85.20
4651;DHT22;2338;49.602;8.722;2023-03-21T14:30:41;13.70;91.50
4651;DHT22;2338;49.602;8.722;2023-03-21T14:33:31;13.70;96.00
4651;DHT22;2338;49.602;8.722;2023-03-21T14:36:19;13.70;96.60
4651;DHT22;2338;49.602;8.722;2023-03-21T14:39:11;13.60;99.90
4651;DHT22;2338;49.602;8.722;2023-03-21T14:42:02;13.60;99.90
4651;DHT22;2338;49.602;8.722;2023-03-21T14:44:49;13.50;99.90
4651;DHT22;2338;49.602;8.722;2023-03-21T14:47:34;13.40;99.90
4651;DHT22;2338;49.602;8.722;2023-03-21T14:50:22;13.30;99.90
4651;DHT22;2338;49.602;8.722;2023-03-21T14:53:14;13.10;99.90
4651;DHT22;2338;49.602;8.722;2023-03-21T14:56:01;12.90;99.90
4651;DHT22;2338;49.602;8.722;2023-03-21T14:58:49;12.80;99.90
4651;DHT22;2338;49.602;8.722;2023-03-21T15:01:34;12.80;99.90
4651;DHT22;2338;49.602;8.722;2023-03-21T15:04:20;12.70;99.90
4651;DHT22;2338;49.602;8.722;2023-03-21T15:07:21;12.60;99.90
4651;DHT22;2338;49.602;8.722;2023-03-21T15:10:13;12.70;99.90
4651;DHT22;2338;49.602;8.722;2023-03-21T15:13:09;12.60;99.90
4651;DHT22;2338;49.602;8.722;2023-03-21T15:15:58;12.70;99.90
4651;DHT22;2338;49.602;8.722;2023-03-21T15:18:44;12.70;99.90
4651;DHT22;2338;49.602;8.722;2023-03-21T15:21:33;12.70;99.90
4651;DHT22;2338;49.602;8.722;2023-03-21T15:24:24;12.80;99.90
4651;DHT22;2338;49.602;8.722;2023-03-21T15:27:14;12.70;99.90
4651;DHT22;2338;49.602;8.722;2023-03-21T15:30:00;12.60;99.90
4651;DHT22;2338;49.602;8.722;2023-03-21T15:32:47;12.50;99.90
4651;DHT22;2338;49.602;8.722;2023-03-21T15:35:36;12.50;99.90
4651;DHT22;2338;49.602;8.722;2023-03-21T15:38:28;12.50;99.90
4651;DHT22;2338;49.602;8.722;2023-03-21T15:41:27;12.60;99.90
4651;DHT22;2338;49.602;8.722;2023-03-21T15:44:13;12.60;99.90
4651;DHT22;2338;49.602;8.722;2023-03-21T15:47:00;12.50;99.90
4651;DHT22;2338;49.602;8.722;2023-03-21T15:49:52;12.50;99.90
4651;DHT22;2338;49.602;8.722;2023-03-21T15:52:38;12.50;99.90
4651;DHT22;2338;49.602;8.722;2023-03-21T15:55:28;12.50;99.90
4651;DHT22;2338;49.602;8.722;2023-03-21T15:58:21;12.50;99.90
4651;DHT22;2338;49.602;8.722;2023-03-21T16:01:11;12.50;99.90
4651;DHT22;2338;49.602;8.722;2023-03-21T16:04:05;12.40;99.90
4651;DHT22;2338;49.602;8.722;2023-03-21T16:06:58;12.30;99.90
4651;DHT22;2338;49.602;8.722;2023-03-21T16:09:45;12.30;99.90
4651;DHT22;2338;49.602;8.722;2023-03-21T16:12:31;12.40;99.90
4651;DHT22;2338;49.602;8.722;2023-03-21T16:15:17;12.40;99.90
4651;DHT22;2338;49.602;8.722;2023-03-21T16:18:05;12.40;99.90
4651;DHT22;2338;49.602;8.722;2023-03-21T16:20:51;12.50;99.90
4651;DHT22;2338;49.602;8.722;2023-03-21T16:23:38;12.40;99.90
4651;DHT22;2338;49.602;8.722;2023-03-21T16:26:25;12.30;99.90
4651;DHT22;2338;49.602;8.722;2023-03-21T16:29:14;12.30;99.90
4651;DHT22;2338;49.602;8.722;2023-03-21T16:31:59;12.30;99.90
4651;DHT22;2338;49.602;8.722;2023-03-21T16:34:49;12.30;99.90
4651;DHT22;2338;49.602;8.722;2023-03-21T16:37:37;12.30;99.90
4651;DHT22;2338;49.602;8.722;2023-03-21T16:40:27;12.20;99.90
4651;DHT22;2338;49.602;8.722;2023-03-21T16:43:14;12.20;99.90
4651;DHT22;2338;49.602;8.722;2023-03-21T16:46:00;12.10;99.90
4651;DHT22;2338;49.602;8.722;2023-03-21T16:48:47;12.10;99.90
4651;DHT22;2338;49.602;8.722;2023-03-21T16:51:34;12.20;99.90
4651;DHT22;2338;49.602;8.722;2023-03-21T16:54:20;12.10;99.90
4651;DHT22;2338;49.602;8.722;2023-03-21T16:57:14;12.00;99.90
4651;DHT22;2338;49.602;8.722;2023-03-21T17:00:03;12.00;99.90
4651;DHT22;2338;49.602;8.722;2023-03-21T17:02:51;12.00;99.90
4651;DHT22;2338;49.602;8.722;2023-03-21T17:05:37;12.00;99.90
4651;DHT22;2338;49.602;8.722;2023-03-21T17:08:23;12.00;99.90
4651;DHT22;2338;49.602;8.722;2023-03-21T17:11:12;12.10;99.90
4651;DHT22;2338;49.602;8.722;2023-03-21T17:14:01;12.00;99.90
4651;DHT22;2338;49.602;8.722;2023-03-21T17:16:47;11.90;99.90
4651;DHT22;2338;49.602;8.722;2023-03-21T17:19:33;11.80;99.90
4651;DHT22;2338;49.602;8.722;2023-03-21T17:22:18;11.80;99.90
4651;DHT22;2338;49.602;8.722;2023-03-21T17:25:05;11.70;99.90
4651;DHT22;2338;49.602;8.722;2023-03-21T17:27:50;11.60;99.90
4651;DHT22;2338;49.602;8.722;2023-03-21T17:30:38;11.60;99.90
4651;DHT22;2338;49.602;8.722;2023-03-21T17:33:24;11.50;99.90
4651;DHT22;2338;49.602;8.722;2023-03-21T17:36:13;11.40;99.90
4651;DHT22;2338;49.602;8.722;2023-03-21T17:38:59;11.30;99.90
4651;DHT22;2338;49.602;8.722;2023-03-21T17:41:44;11.30;99.90
4651;DHT22;2338;49.602;8.722;2023-03-21T17:44:30;11.30;99.90
4651;DHT22;2338;49.602;8.722;2023-03-21T17:47:17;11.30;99.90
4651;DHT22;2338;49.602;8.722;2023-03-21T17:50:03;11.30;99.90
4651;DHT22;2338;49.602;8.722;2023-03-21T17:52:49;11.30;99.90
4651;DHT22;2338;49.602;8.722;2023-03-21T17:55:37;11.20;99.90
4651;DHT22;2338;49.602;8.722;2023-03-21T17:58:24;11.10;99.90
4651;DHT22;2338;49.602;8.722;2023-03-21T18:01:10;11.10;99.90
4651;DHT22;2338;49.602;8.722;2023-03-21T18:03:58;11.00;99.90
4651;DHT22;2338;49.602;8.722;2023-03-21T18:06:45;11.10;99.90
4651;DHT22;2338;49.602;8.722;2023-03-21T18:09:31;11.00;99.90
4651;DHT22;2338;49.602;8.722;2023-03-21T18:12:17;10.90;99.90
4651;DHT22;2338;49.602;8.722;2023-03-21T18:15:03;10.90;99.90
4651;DHT22;2338;49.602;8.722;2023-03-21T18:17:49;10.90;99.90
4651;DHT22;2338;49.602;8.722;2023-03-21T18:20:36;10.80;99.90
4651;DHT22;2338;49.602;8.722;2023-03-21T18:23:22;10.70;99.90
4651;DHT22;2338;49.602;8.722;2023-03-21T18:26:09;10.60;99.90
4651;DHT22;2338;49.602;8.722;2023-03-21T18:28:55;10.60;99.90
4651;DHT22;2338;49.602;8.722;2023-03-21T18:31:41;10.70;99.90